createdAt,value
2022-09-06T00:01:34.941Z,15.70
2022-09-06T00:04:01.846Z,15.70
2022-09-06T00:06:28.419Z,15.60
2022-09-06T00:08:54.944Z,15.40
2022-09-06T00:11:21.592Z,15.30
2022-09-06T00:13:48.207Z,15.20
2022-09-06T00:16:16.630Z,15.10
2022-09-06T00:18:43.604Z,15.00
2022-09-06T00:21:15.189Z,14.90
2022-09-06T00:23:41.871Z,14.80
2022-09-06T00:26:08.519Z,14.70
2022-09-06T00:28:35.121Z,14.60
2022-09-06T00:31:12.406Z,14.50
2022-09-06T00:33:39.265Z,14.50
2022-09-06T00:36:06.087Z,14.30
2022-09-06T00:38:32.772Z,14.20
2022-09-06T00:40:59.414Z,14.10
2022-09-06T00:43:25.947Z,14.00
2022-09-06T00:45:53.053Z,13.90
2022-09-06T00:48:20.592Z,13.90
2022-09-06T00:50:47.750Z,13.80
2022-09-06T00:53:14.571Z,13.80
2022-09-06T00:55:42.893Z,13.70
2022-09-06T00:58:09.901Z,13.60
2022-09-06T01:00:36.543Z,13.50
2022-09-06T01:03:03.220Z,13.50
2022-09-06T01:05:35.762Z,13.40
2022-09-06T01:08:02.283Z,13.40
2022-09-06T01:10:35.799Z,13.30
2022-09-06T01:13:28.298Z,13.30
2022-09-06T01:16:00.659Z,13.30
2022-09-06T01:18:45.136Z,13.30
2022-09-06T01:21:18.321Z,13.20
2022-09-06T01:24:10.078Z,13.20
2022-09-06T01:27:03.390Z,13.20
2022-09-06T01:30:05.300Z,13.20
2022-09-06T01:32:31.821Z,13.10
2022-09-06T01:35:13.897Z,13.10
2022-09-06T01:37:41.035Z,13.10
2022-09-06T01:40:08.016Z,13.10
2022-09-06T01:42:35.629Z,13.00
2022-09-06T01:45:04.865Z,13.00
2022-09-06T01:47:37.825Z,13.00
2022-09-06T01:50:16.191Z,13.00
2022-09-06T01:53:01.359Z,13.00
2022-09-06T01:55:34.041Z,13.00
2022-09-06T01:58:03.635Z,13.00
2022-09-06T02:00:31.355Z,13.00
2022-09-06T02:03:07.183Z,13.00
2022-09-06T02:05:57.257Z,12.90
2022-09-06T02:08:27.046Z,12.90
2022-09-06T02:10:59.233Z,12.90
2022-09-06T02:13:27.613Z,12.90
2022-09-06T02:15:56.164Z,12.90
2022-09-06T02:18:26.080Z,12.90
2022-09-06T02:20:54.791Z,12.80
2022-09-06T02:23:23.547Z,12.80
2022-09-06T02:25:52.729Z,12.80
2022-09-06T02:28:19.348Z,12.80
2022-09-06T02:30:48.463Z,12.80
2022-09-06T02:33:19.618Z,12.80
2022-09-06T02:35:48.159Z,12.70
2022-09-06T02:38:15.180Z,12.80
2022-09-06T02:40:43.192Z,12.70
2022-09-06T02:43:09.968Z,12.60
2022-09-06T02:45:36.536Z,12.60
2022-09-06T02:48:03.427Z,12.60
2022-09-06T02:50:30.013Z,12.60
2022-09-06T02:53:04.364Z,12.50
2022-09-06T02:55:31.034Z,12.50
2022-09-06T02:57:58.292Z,12.50
2022-09-06T03:00:25.409Z,12.50
2022-09-06T03:02:52.051Z,12.40
2022-09-06T03:05:18.716Z,12.40
2022-09-06T03:07:45.335Z,12.40
2022-09-06T03:10:11.946Z,12.30
2022-09-06T03:12:38.534Z,12.30
2022-09-06T03:15:06.197Z,12.40
2022-09-06T03:17:32.732Z,12.40
2022-09-06T03:19:59.384Z,12.40
2022-09-06T03:22:25.965Z,12.40
2022-09-06T03:24:52.575Z,12.50
2022-09-06T03:27:19.099Z,12.50
2022-09-06T03:29:45.754Z,12.50
2022-09-06T03:32:12.368Z,12.50
2022-09-06T03:34:38.944Z,12.50
2022-09-06T03:37:05.742Z,12.60
2022-09-06T03:39:32.345Z,12.60
2022-09-06T03:41:58.984Z,12.60
2022-09-06T03:44:25.584Z,12.70
2022-09-06T03:46:52.660Z,12.80
2022-09-06T03:49:19.212Z,12.80
2022-09-06T03:51:45.863Z,12.80
2022-09-06T03:54:12.479Z,12.80
2022-09-06T03:56:39.086Z,12.90
2022-09-06T03:59:05.705Z,12.90
2022-09-06T04:01:32.787Z,12.90
2022-09-06T04:04:01.152Z,12.90
2022-09-06T04:06:28.192Z,12.80
2022-09-06T04:08:54.868Z,12.80
2022-09-06T04:11:21.446Z,12.80
2022-09-06T04:13:48.696Z,12.70
2022-09-06T04:16:17.501Z,12.70
2022-09-06T04:18:44.143Z,12.70
2022-09-06T04:21:10.981Z,12.70
2022-09-06T04:23:39.939Z,12.60
2022-09-06T04:26:06.786Z,12.60
2022-09-06T04:28:33.376Z,12.60
2022-09-06T04:31:04.646Z,12.60
2022-09-06T04:33:32.984Z,12.60
2022-09-06T04:36:00.453Z,12.60
2022-09-06T04:38:27.843Z,12.60
2022-09-06T04:40:57.500Z,12.70
2022-09-06T04:43:24.477Z,12.70
2022-09-06T04:45:51.345Z,12.70
2022-09-06T04:48:18.011Z,12.80
2022-09-06T04:50:44.623Z,12.80
2022-09-06T04:53:11.195Z,12.90
2022-09-06T04:55:38.001Z,12.90
2022-09-06T04:58:05.246Z,12.90
2022-09-06T05:00:32.800Z,12.90
2022-09-06T05:02:59.394Z,12.90
2022-09-06T05:05:25.977Z,12.90
2022-09-06T05:07:52.974Z,12.90
2022-09-06T05:10:19.697Z,12.90
2022-09-06T05:12:53.436Z,12.90
2022-09-06T05:15:20.653Z,12.90
2022-09-06T05:17:47.342Z,12.90
2022-09-06T05:20:13.994Z,12.90
2022-09-06T05:22:40.785Z,13.00
2022-09-06T05:25:08.376Z,13.00
2022-09-06T05:27:35.013Z,13.10
2022-09-06T05:30:03.323Z,13.10
2022-09-06T05:32:29.893Z,13.20
2022-09-06T05:34:56.517Z,13.30
2022-09-06T05:37:23.109Z,13.30
2022-09-06T05:39:49.761Z,13.40
2022-09-06T05:42:19.269Z,13.50
2022-09-06T05:44:46.124Z,13.50
2022-09-06T05:47:12.700Z,13.60
2022-09-06T05:49:39.425Z,13.70
2022-09-06T05:52:06.052Z,13.70
2022-09-06T05:54:32.650Z,13.80
2022-09-06T05:56:59.188Z,13.90
2022-09-06T05:59:26.450Z,13.90
2022-09-06T06:01:53.490Z,13.90
2022-09-06T06:04:20.710Z,14.00
2022-09-06T06:06:47.392Z,14.10
2022-09-06T06:09:14.186Z,14.20
2022-09-06T06:11:41.100Z,14.20
2022-09-06T06:14:07.740Z,14.30
2022-09-06T06:16:34.925Z,14.30
2022-09-06T06:19:01.508Z,14.40
2022-09-06T06:21:29.143Z,14.50
2022-09-06T06:23:56.809Z,14.60
2022-09-06T06:26:23.999Z,14.60
2022-09-06T06:28:51.540Z,14.60
2022-09-06T06:31:19.419Z,14.60
2022-09-06T06:33:46.371Z,14.60
2022-09-06T06:36:15.703Z,14.80
2022-09-06T06:38:43.360Z,14.80
2022-09-06T06:41:11.077Z,14.90
2022-09-06T06:43:37.979Z,14.90
2022-09-06T06:46:09.242Z,15.00
2022-09-06T06:48:36.225Z,15.10
2022-09-06T06:51:03.173Z,15.10
2022-09-06T06:53:29.805Z,15.20
2022-09-06T06:55:56.422Z,15.30
2022-09-06T06:58:23.091Z,15.40
2022-09-06T07:00:49.851Z,15.50
2022-09-06T07:03:16.448Z,15.70
2022-09-06T07:08:33.852Z,16.40
2022-09-06T07:11:00.427Z,16.80
2022-09-06T07:13:27.041Z,17.20
2022-09-06T07:16:06.185Z,17.50
2022-09-06T07:18:32.812Z,17.70
2022-09-06T07:26:32.687Z,18.70
2022-09-06T07:29:00.145Z,18.90
2022-09-06T07:34:14.557Z,19.40
2022-09-06T07:36:41.150Z,19.70
2022-09-06T07:39:07.726Z,20.00
2022-09-06T07:41:34.298Z,20.30
2022-09-06T07:44:00.881Z,20.60
2022-09-06T07:46:27.459Z,20.80
2022-09-06T07:48:54.036Z,21.10
2022-09-06T07:51:21.331Z,21.30
2022-09-06T07:53:57.952Z,21.40
2022-09-06T07:56:33.950Z,21.60
2022-09-06T07:59:00.498Z,21.70
2022-09-06T08:01:30.314Z,21.60
2022-09-06T08:04:01.073Z,21.70
2022-09-06T08:06:29.075Z,21.70
2022-09-06T08:11:28.919Z,21.90
2022-09-06T08:13:56.020Z,21.80
2022-09-06T08:16:23.486Z,21.90
2022-09-06T08:18:51.537Z,21.90
2022-09-06T08:21:18.228Z,21.90
2022-09-06T08:23:46.162Z,21.90
2022-09-06T08:26:12.942Z,22.00
2022-09-06T08:28:39.501Z,22.10
2022-09-06T08:31:10.581Z,22.10
2022-09-06T08:33:37.976Z,22.10
2022-09-06T08:36:05.094Z,22.10
2022-09-06T08:38:32.067Z,22.00
2022-09-06T08:41:10.869Z,22.00
2022-09-06T08:43:38.244Z,22.00
2022-09-06T08:46:06.285Z,22.10
2022-09-06T08:48:36.993Z,22.10
2022-09-06T08:51:09.780Z,22.10
2022-09-06T08:53:39.234Z,22.00
2022-09-06T08:56:13.281Z,21.90
2022-09-06T08:58:58.862Z,21.60
2022-09-06T09:01:29.956Z,21.70
2022-09-06T09:03:57.745Z,21.90
2022-09-06T09:06:25.604Z,22.00
2022-09-06T09:08:54.966Z,22.30
2022-09-06T09:11:23.112Z,22.50
2022-09-06T09:14:04.776Z,22.80
2022-09-06T09:16:31.547Z,23.10
2022-09-06T09:19:02.404Z,23.30
2022-09-06T09:21:31.244Z,23.50
2022-09-06T09:23:59.396Z,23.60
2022-09-06T09:26:27.761Z,23.70
2022-09-06T09:29:04.624Z,23.90
2022-09-06T09:31:35.972Z,23.90
2022-09-06T09:34:04.722Z,23.80
2022-09-06T09:36:32.098Z,23.70
2022-09-06T09:38:59.811Z,23.70
2022-09-06T09:41:31.345Z,23.50
2022-09-06T09:44:04.374Z,23.30
2022-09-06T09:46:39.747Z,23.10
2022-09-06T09:49:09.467Z,22.90
2022-09-06T09:51:47.126Z,22.80
2022-09-06T09:54:15.161Z,22.60
2022-09-06T09:56:54.248Z,22.50
2022-09-06T09:59:22.630Z,22.40
2022-09-06T10:01:49.995Z,22.40
2022-09-06T10:04:45.493Z,22.40
2022-09-06T10:07:12.533Z,22.40
2022-09-06T10:09:43.814Z,22.30
2022-09-06T10:12:15.650Z,22.40
2022-09-06T10:14:46.512Z,22.40
2022-09-06T10:17:20.882Z,22.50
2022-09-06T10:19:48.691Z,22.50
2022-09-06T10:22:28.649Z,22.40
2022-09-06T10:24:55.248Z,22.50
2022-09-06T10:27:25.496Z,22.50
2022-09-06T10:29:58.337Z,22.50
2022-09-06T10:32:34.828Z,22.50
2022-09-06T10:35:10.982Z,22.50
2022-09-06T10:37:46.709Z,22.50
2022-09-06T10:40:19.941Z,22.50
2022-09-06T10:42:48.309Z,22.40
2022-09-06T10:45:33.515Z,22.40
2022-09-06T10:48:12.588Z,22.40
2022-09-06T10:50:58.608Z,22.30
2022-09-06T10:53:30.767Z,22.40
2022-09-06T10:56:06.087Z,22.30
2022-09-06T11:01:31.124Z,22.40
2022-09-06T11:04:04.130Z,22.30
2022-09-06T11:06:36.386Z,22.20
2022-09-06T11:09:13.840Z,22.20
2022-09-06T11:11:44.490Z,22.10
2022-09-06T11:14:15.425Z,22.10
2022-09-06T11:17:00.876Z,22.10
2022-09-06T11:19:47.775Z,22.10
2022-09-06T11:22:33.127Z,22.20
2022-09-06T11:25:19.973Z,22.10
2022-09-06T11:27:51.676Z,22.10
2022-09-06T11:30:19.780Z,22.20
2022-09-06T11:32:49.682Z,22.20
2022-09-06T11:35:24.403Z,22.30
2022-09-06T11:38:05.488Z,22.40
2022-09-06T11:40:41.468Z,22.40
2022-09-06T11:43:09.319Z,22.50
2022-09-06T11:45:40.529Z,22.60
2022-09-06T11:48:26.593Z,22.70
2022-09-06T11:50:53.285Z,22.80
2022-09-06T11:53:20.581Z,22.80
2022-09-06T11:55:50.232Z,22.80
2022-09-06T11:58:16.754Z,22.80
2022-09-06T12:00:44.212Z,22.70
2022-09-06T12:06:27.757Z,22.70
2022-09-06T12:08:55.363Z,22.70
2022-09-06T12:11:23.205Z,22.60
2022-09-06T12:14:00.073Z,22.60
2022-09-06T12:16:46.660Z,22.60
2022-09-06T12:19:33.148Z,22.50
2022-09-06T12:21:59.969Z,22.40
2022-09-06T12:24:35.723Z,22.40
2022-09-06T12:27:15.621Z,22.50
2022-09-06T12:29:54.950Z,22.40
2022-09-06T12:32:24.076Z,22.40
2022-09-06T12:37:48.976Z,22.30
2022-09-06T12:40:18.112Z,22.40
2022-09-06T12:42:46.918Z,22.40
2022-09-06T12:45:13.981Z,22.30
2022-09-06T12:47:40.557Z,22.40
2022-09-06T12:50:08.652Z,22.30
2022-09-06T12:52:43.431Z,22.40
2022-09-06T12:55:15.940Z,22.40
2022-09-06T12:57:46.947Z,22.40
2022-09-06T13:00:15.148Z,22.30
2022-09-06T13:02:48.405Z,22.30
2022-09-06T13:05:15.191Z,22.20
2022-09-06T13:07:48.640Z,22.10
2022-09-06T13:10:17.232Z,22.10
2022-09-06T13:12:45.290Z,22.10
2022-09-06T13:15:32.213Z,22.10
2022-09-06T13:18:17.718Z,22.20
2022-09-06T13:20:44.349Z,22.20
2022-09-06T13:23:13.029Z,22.30
2022-09-06T13:25:49.641Z,22.40
2022-09-06T13:28:26.871Z,22.40
2022-09-06T13:31:04.412Z,22.50
2022-09-06T14:15:26.000Z,22.40
2022-09-06T14:17:53.249Z,22.40
2022-09-06T14:20:20.313Z,22.20
2022-09-06T14:22:47.799Z,22.20
2022-09-06T14:25:15.973Z,22.20
2022-09-06T14:28:19.689Z,22.20
2022-09-06T14:30:46.391Z,22.10
2022-09-06T14:33:13.021Z,22.20
2022-09-06T14:35:39.766Z,22.20
2022-09-06T14:38:06.439Z,22.20
2022-09-06T14:40:37.286Z,22.20
2022-09-06T14:43:04.189Z,22.20
2022-09-06T14:45:30.797Z,22.20
2022-09-06T14:47:57.419Z,22.20
2022-09-06T14:50:24.012Z,22.20
2022-09-06T14:52:50.595Z,22.20
2022-09-06T14:55:17.247Z,22.30
2022-09-06T14:57:43.802Z,22.30
2022-09-06T15:00:11.492Z,22.40
2022-09-06T15:02:38.138Z,22.40
2022-09-06T15:05:05.761Z,22.40
2022-09-06T15:07:32.389Z,22.50
2022-09-06T15:09:59.110Z,22.50
2022-09-06T15:12:25.873Z,22.50
2022-09-06T15:14:52.510Z,22.50
2022-09-06T15:17:19.053Z,22.40
2022-09-06T15:19:45.797Z,22.40
2022-09-06T15:22:12.425Z,22.40
2022-09-06T15:24:40.097Z,22.50
2022-09-06T15:27:06.683Z,22.60
2022-09-06T15:29:33.413Z,22.80
2022-09-06T15:32:00.079Z,23.00
2022-09-06T15:34:26.796Z,23.20
2022-09-06T15:36:53.587Z,23.30
2022-09-06T15:39:20.346Z,23.30
2022-09-06T15:41:47.010Z,23.30
2022-09-06T15:44:15.076Z,23.30
2022-09-06T15:46:41.660Z,23.40
2022-09-06T15:49:09.330Z,23.40
2022-09-06T15:51:36.942Z,23.20
2022-09-06T15:54:04.327Z,23.20
2022-09-06T15:56:30.920Z,23.10
2022-09-06T15:58:57.506Z,22.90
2022-09-06T16:01:25.343Z,22.80
2022-09-06T16:03:53.650Z,22.70
2022-09-06T16:08:52.571Z,22.50
2022-09-06T16:11:19.179Z,22.30
2022-09-06T16:13:45.968Z,22.30
2022-09-06T16:16:13.529Z,22.40
2022-09-06T16:18:42.412Z,22.20
2022-09-06T16:21:10.100Z,22.10
2022-09-06T16:23:36.899Z,22.10
2022-09-06T16:26:04.228Z,22.10
2022-09-06T16:28:31.505Z,22.10
2022-09-06T16:31:02.415Z,22.00
2022-09-06T16:33:29.226Z,21.90
2022-09-06T16:35:58.652Z,21.80
2022-09-06T16:38:25.280Z,21.70
2022-09-06T16:40:51.869Z,21.70
2022-09-06T16:43:19.103Z,21.60
2022-09-06T16:45:54.944Z,21.60
2022-09-06T16:48:21.553Z,21.50
2022-09-06T16:50:48.108Z,21.40
2022-09-06T16:53:15.872Z,21.40
2022-09-06T16:55:43.963Z,21.30
2022-09-06T16:58:10.653Z,21.20
2022-09-06T17:00:41.168Z,21.20
2022-09-06T17:03:08.772Z,21.10
2022-09-06T17:05:35.533Z,21.00
2022-09-06T17:08:02.454Z,20.90
2022-09-06T17:10:29.293Z,20.90
2022-09-06T17:12:55.855Z,20.90
2022-09-06T17:15:22.399Z,20.80
2022-09-06T17:17:49.278Z,20.80
2022-09-06T17:20:18.103Z,20.80
2022-09-06T17:22:49.329Z,20.70
2022-09-06T17:25:15.983Z,20.60
2022-09-06T17:27:42.519Z,20.60
2022-09-06T17:30:09.443Z,20.60
2022-09-06T17:32:36.509Z,20.50
2022-09-06T17:35:04.033Z,20.40
2022-09-06T17:37:32.686Z,20.40
2022-09-06T17:39:59.432Z,20.40
2022-09-06T17:42:26.272Z,20.20
2022-09-06T17:44:52.881Z,20.20
2022-09-06T17:47:19.515Z,20.10
2022-09-06T17:49:47.407Z,20.10
2022-09-06T17:52:14.017Z,20.00
2022-09-06T17:54:40.631Z,19.90
2022-09-06T17:57:07.322Z,19.80
2022-09-06T17:59:42.697Z,19.80
2022-09-06T18:02:18.575Z,19.70
2022-09-06T18:04:49.919Z,19.70
2022-09-06T18:08:29.594Z,19.60
2022-09-06T18:10:56.412Z,19.60
2022-09-06T18:13:23.931Z,19.50
2022-09-06T18:15:50.503Z,19.40
2022-09-06T18:18:18.064Z,19.40
2022-09-06T18:20:44.625Z,19.30
2022-09-06T18:23:11.228Z,19.30
2022-09-06T18:25:37.793Z,19.20
2022-09-06T18:28:04.400Z,19.20
2022-09-06T18:30:30.967Z,19.20
2022-09-06T18:32:57.527Z,19.20
2022-09-06T18:35:24.168Z,19.10
2022-09-06T18:37:50.786Z,19.10
2022-09-06T18:40:17.380Z,19.10
2022-09-06T18:42:44.604Z,19.10
2022-09-06T18:45:11.439Z,19.10
2022-09-06T18:47:38.129Z,19.10
2022-09-06T18:50:06.449Z,19.10
2022-09-06T18:52:33.180Z,19.10
2022-09-06T18:54:59.726Z,19.10
2022-09-06T18:57:26.310Z,19.10
2022-09-06T18:59:52.976Z,19.10
2022-09-06T19:02:20.568Z,19.10
2022-09-06T19:04:47.446Z,19.10
2022-09-06T19:07:14.019Z,19.10
2022-09-06T19:09:41.477Z,19.10
2022-09-06T19:12:11.492Z,19.10
2022-09-06T19:14:38.067Z,19.00
2022-09-06T19:17:04.697Z,19.00
2022-09-06T19:19:31.317Z,18.90
2022-09-06T19:21:58.492Z,18.90
2022-09-06T19:24:25.575Z,18.80
2022-09-06T19:26:52.960Z,18.90
2022-09-06T19:29:19.606Z,18.70
2022-09-06T19:31:47.236Z,18.70
2022-09-06T19:34:15.514Z,18.70
2022-09-06T19:36:43.806Z,18.60
2022-09-06T19:39:12.449Z,18.50
2022-09-06T19:41:39.837Z,18.40
2022-09-06T19:44:08.528Z,18.40
2022-09-06T19:46:35.659Z,18.30
2022-09-06T19:49:02.407Z,18.30
2022-09-06T19:51:29.290Z,18.30
2022-09-06T19:54:00.031Z,18.30
2022-09-06T19:56:31.599Z,18.20
2022-09-06T19:59:05.882Z,18.20
2022-09-06T20:01:35.413Z,18.10
2022-09-06T20:04:03.357Z,18.10
2022-09-06T20:06:30.447Z,18.00
2022-09-06T20:08:57.608Z,17.90
2022-09-06T20:11:25.784Z,17.90
2022-09-06T20:13:52.425Z,17.90
2022-09-06T20:16:20.748Z,17.80
2022-09-06T20:18:48.286Z,17.70
2022-09-06T20:21:15.284Z,17.70
2022-09-06T20:23:41.899Z,17.60
2022-09-06T20:26:09.881Z,17.60
2022-09-06T20:28:37.088Z,17.50
2022-09-06T20:31:11.498Z,17.50
2022-09-06T20:33:38.234Z,17.50
2022-09-06T20:36:06.625Z,17.50
2022-09-06T20:38:34.545Z,17.40
2022-09-06T20:41:05.479Z,17.40
2022-09-06T20:43:39.084Z,17.40
2022-09-06T20:46:09.249Z,17.40
2022-09-06T20:48:43.683Z,17.30
2022-09-06T20:51:15.923Z,17.30
2022-09-06T20:53:42.660Z,17.20
2022-09-06T20:56:10.685Z,17.20
2022-09-06T20:58:40.742Z,17.20
2022-09-06T21:01:11.694Z,17.20
2022-09-06T21:03:39.460Z,17.10
2022-09-06T21:06:06.654Z,17.20
2022-09-06T21:08:35.477Z,17.10
2022-09-06T21:11:04.199Z,17.10
2022-09-06T21:13:31.232Z,17.00
2022-09-06T21:15:58.184Z,17.00
2022-09-06T21:18:26.238Z,17.00
2022-09-06T21:20:53.937Z,17.00
2022-09-06T21:23:22.913Z,16.90
2022-09-06T21:25:53.281Z,16.80
2022-09-06T21:28:19.838Z,16.80
2022-09-06T21:30:46.431Z,16.70
2022-09-06T21:33:12.980Z,16.70
2022-09-06T21:35:39.729Z,16.60
2022-09-06T21:38:06.285Z,16.60
2022-09-06T21:40:36.011Z,16.60
2022-09-06T21:43:03.157Z,16.50
2022-09-06T21:45:29.808Z,16.50
2022-09-06T21:47:56.396Z,16.50
2022-09-06T21:50:22.956Z,16.50
2022-09-06T21:52:49.569Z,16.50
2022-09-06T21:55:16.175Z,16.50
2022-09-06T21:57:42.798Z,16.50
2022-09-06T22:00:09.616Z,16.50
2022-09-06T22:02:36.699Z,16.50
2022-09-06T22:05:06.517Z,16.50
2022-09-06T22:07:35.421Z,16.40
2022-09-06T22:10:02.091Z,16.40
2022-09-06T22:12:28.656Z,16.40
2022-09-06T22:14:55.299Z,16.40
2022-09-06T22:17:22.027Z,16.40
2022-09-06T22:19:48.613Z,16.40
2022-09-06T22:22:15.247Z,16.50
2022-09-06T22:24:41.802Z,16.40
2022-09-06T22:27:08.379Z,16.50
2022-09-06T22:29:35.008Z,16.50
2022-09-06T22:32:01.643Z,16.60
2022-09-06T22:34:28.351Z,16.60
2022-09-06T22:36:55.149Z,16.70
2022-09-06T22:39:21.724Z,16.80
2022-09-06T22:41:48.284Z,16.80
2022-09-06T22:44:14.985Z,16.90
2022-09-06T22:46:41.636Z,16.90
2022-09-06T22:49:08.306Z,16.90
2022-09-06T22:51:34.978Z,16.90
2022-09-06T22:54:01.879Z,16.90
2022-09-06T22:56:28.726Z,16.90
2022-09-06T22:58:55.273Z,16.90
2022-09-06T23:01:22.317Z,16.90
2022-09-06T23:03:49.830Z,16.90
2022-09-06T23:06:16.708Z,16.90
2022-09-06T23:08:43.496Z,16.90
2022-09-06T23:11:11.751Z,16.90
2022-09-06T23:13:38.501Z,16.90
2022-09-06T23:16:06.337Z,16.90
2022-09-06T23:18:33.337Z,16.90
2022-09-06T23:21:06.720Z,16.90
2022-09-06T23:23:33.581Z,16.80
2022-09-06T23:26:08.023Z,16.80
2022-09-06T23:28:35.557Z,16.80
2022-09-06T23:31:03.729Z,16.80
2022-09-06T23:33:31.251Z,16.70
2022-09-06T23:35:58.269Z,16.70
2022-09-06T23:38:25.016Z,16.60
2022-09-06T23:40:51.738Z,16.60
2022-09-06T23:43:18.349Z,16.60
2022-09-06T23:45:44.943Z,16.50
2022-09-06T23:48:11.493Z,16.50
2022-09-06T23:50:38.102Z,16.50
2022-09-06T23:53:04.680Z,16.50
2022-09-06T23:55:31.275Z,16.50
2022-09-06T23:57:58.038Z,16.60
